createdAt,value
2022-08-04T00:01:14.350Z,89
2022-08-04T00:06:48.732Z,90
2022-08-04T00:12:31.455Z,91
2022-08-04T00:17:58.803Z,91
2022-08-04T00:24:41.304Z,92
2022-08-04T00:30:15.841Z,92
2022-08-04T00:36:57.958Z,92
2022-08-04T00:42:33.540Z,92
2022-08-04T00:48:07.990Z,93
2022-08-04T00:55:57.159Z,94
2022-08-04T01:01:32.341Z,94
2022-08-04T01:07:07.251Z,94
2022-08-04T01:12:41.664Z,94
2022-08-04T01:18:16.761Z,94
2022-08-04T01:23:51.974Z,96
2022-08-04T01:29:30.472Z,95
2022-08-04T01:35:02.845Z,95
2022-08-04T01:40:36.809Z,94
2022-08-04T01:46:12.352Z,94
2022-08-04T01:51:46.801Z,94
2022-08-04T01:57:38.608Z,93
2022-08-04T02:02:56.893Z,94
2022-08-04T02:08:31.842Z,95
2022-08-04T02:14:09.049Z,94
2022-08-04T02:19:41.773Z,94
2022-08-04T02:25:17.315Z,94
2022-08-04T02:31:58.931Z,95
2022-08-04T02:37:33.939Z,95
2022-08-04T02:43:08.956Z,96
2022-08-04T02:48:43.917Z,95
2022-08-04T02:54:31.640Z,95
2022-08-04T02:59:53.910Z,96
2022-08-04T03:05:29.000Z,94
2022-08-04T03:11:03.985Z,96
2022-08-04T03:16:39.093Z,97
2022-08-04T03:22:13.990Z,98
2022-08-04T03:27:49.087Z,99
2022-08-04T03:33:24.011Z,98
2022-08-04T03:40:10.561Z,99
2022-08-04T03:45:41.152Z,99
2022-08-04T03:51:35.428Z,99
2022-08-04T03:56:51.114Z,99
2022-08-04T04:03:32.742Z,98
2022-08-04T04:09:08.099Z,98
2022-08-04T04:14:42.791Z,98
2022-08-04T04:20:20.160Z,98
2022-08-04T04:25:52.853Z,98
2022-08-04T04:31:27.756Z,99
2022-08-04T04:37:02.808Z,96
2022-08-04T04:42:37.735Z,97
2022-08-04T04:48:12.838Z,98
2022-08-04T04:53:47.840Z,97
2022-08-04T04:59:22.831Z,97
2022-08-04T05:04:57.832Z,96
2022-08-04T05:10:32.851Z,97
2022-08-04T05:16:07.861Z,97
2022-08-04T05:21:42.791Z,98
2022-08-04T05:27:17.880Z,97
2022-08-04T05:32:54.042Z,99
2022-08-04T05:38:27.935Z,99
2022-08-04T05:44:02.883Z,99
2022-08-04T05:49:38.071Z,99
2022-08-04T05:55:13.223Z,99
2022-08-04T06:00:51.563Z,99
2022-08-04T06:06:22.931Z,99
2022-08-04T06:12:03.232Z,99
2022-08-04T06:19:56.063Z,99
2022-08-04T06:23:07.959Z,98
2022-08-04T06:28:42.954Z,99
2022-08-04T06:34:17.931Z,97
2022-08-04T06:39:52.942Z,98
2022-08-04T06:45:27.953Z,99
2022-08-04T06:51:28.746Z,95
2022-08-04T06:56:37.982Z,95
2022-08-04T07:02:13.030Z,94
2022-08-04T07:07:56.521Z,94
2022-08-04T07:13:22.971Z,95
2022-08-04T07:18:58.050Z,95
2022-08-04T07:24:33.038Z,96
2022-08-04T07:30:08.124Z,95
2022-08-04T07:36:04.858Z,99
2022-08-04T07:41:36.665Z,99
2022-08-04T07:46:53.678Z,99
2022-08-04T07:52:28.122Z,98
2022-08-04T07:58:07.043Z,94
2022-08-04T08:03:37.638Z,92
2022-08-04T08:09:14.615Z,91
2022-08-04T08:14:47.631Z,91
2022-08-04T08:20:28.980Z,91
2022-08-04T08:25:57.526Z,90
2022-08-04T08:31:57.279Z,90
2022-08-04T08:37:07.604Z,90
2022-08-04T08:42:42.566Z,89
2022-08-04T08:48:17.604Z,87
2022-08-04T08:53:52.763Z,86
2022-08-04T08:59:27.644Z,84
2022-08-04T09:05:02.850Z,84
2022-08-04T09:10:37.879Z,84
2022-08-04T09:16:12.668Z,83
2022-08-04T09:21:47.673Z,82
2022-08-04T09:27:22.745Z,79
2022-08-04T09:32:57.647Z,78
2022-08-04T09:38:32.709Z,78
2022-08-04T09:44:49.171Z,78
2022-08-04T09:49:42.672Z,79
2022-08-04T09:55:17.672Z,77
2022-08-04T10:00:52.718Z,77
2022-08-04T10:06:27.701Z,75
2022-08-04T10:12:02.709Z,74
2022-08-04T10:17:37.788Z,75
2022-08-04T10:23:12.742Z,75
2022-08-04T10:28:48.086Z,75
2022-08-04T10:34:22.723Z,75
2022-08-04T10:39:58.393Z,77
2022-08-04T10:45:32.795Z,76
2022-08-04T10:51:07.713Z,74
2022-08-04T10:56:42.817Z,73
2022-08-04T11:02:17.866Z,73
2022-08-04T11:08:59.913Z,74
2022-08-04T11:14:34.881Z,75
2022-08-04T11:20:33.458Z,76
2022-08-04T11:25:48.460Z,76
2022-08-04T11:31:19.885Z,76
2022-08-04T11:36:54.944Z,76
2022-08-04T11:42:29.437Z,76
2022-08-04T11:48:04.989Z,76
2022-08-04T11:53:39.468Z,75
2022-08-04T11:59:14.479Z,76
2022-08-04T12:04:49.398Z,76
2022-08-04T12:10:41.406Z,74
2022-08-04T12:15:59.484Z,74
2022-08-04T12:21:34.512Z,73
2022-08-04T12:27:09.423Z,71
2022-08-04T12:32:48.431Z,71
2022-08-04T12:38:19.564Z,70
2022-08-04T12:43:54.469Z,70
2022-08-04T12:49:29.511Z,71
2022-08-04T12:55:04.489Z,72
2022-08-04T13:00:41.805Z,73
2022-08-04T13:06:18.475Z,71
2022-08-04T13:11:49.601Z,71
2022-08-04T13:24:21.300Z,72
2022-08-04T13:30:00.715Z,72
2022-08-04T13:30:25.345Z,72
2022-08-04T13:35:16.663Z,72
2022-08-04T13:40:51.677Z,72
2022-08-04T13:46:27.832Z,72
2022-08-04T13:52:01.733Z,73
2022-08-04T13:57:36.682Z,76
2022-08-04T14:03:23.356Z,76
2022-08-04T14:08:46.712Z,77
2022-08-04T14:14:21.683Z,77
2022-08-04T14:19:56.715Z,77
2022-08-04T14:25:35.576Z,75
2022-08-04T14:31:06.994Z,75
2022-08-04T14:36:49.645Z,75
2022-08-04T14:42:16.818Z,73
2022-08-04T14:47:53.170Z,73
2022-08-04T14:53:26.799Z,72
2022-08-04T14:59:01.839Z,72
2022-08-04T15:04:36.737Z,74
2022-08-04T15:10:13.568Z,78
2022-08-04T15:16:02.217Z,79
2022-08-04T15:22:28.649Z,78
2022-08-04T15:28:03.459Z,76
2022-08-04T15:34:45.576Z,74
2022-08-04T15:40:27.135Z,74
2022-08-04T15:46:32.940Z,74
2022-08-04T15:51:32.734Z,74
2022-08-04T15:57:05.522Z,74
2022-08-04T16:03:54.320Z,72
2022-08-04T16:09:23.145Z,72
2022-08-04T16:14:57.714Z,71
2022-08-04T16:20:33.754Z,72
2022-08-04T16:26:08.016Z,72
2022-08-04T16:31:42.733Z,73
2022-08-04T16:38:24.342Z,75
2022-08-04T16:45:06.480Z,77
2022-08-04T16:50:41.602Z,77
2022-08-04T16:56:17.688Z,77
2022-08-04T17:01:52.780Z,77
2022-08-04T17:07:26.638Z,77
2022-08-04T17:13:28.103Z,76
2022-08-04T17:18:36.429Z,75
2022-08-04T17:24:12.558Z,76
2022-08-04T17:29:46.535Z,75
2022-08-04T17:35:21.898Z,74
2022-08-04T17:42:03.662Z,75
2022-08-04T17:47:38.594Z,75
2022-08-04T17:53:13.655Z,75
2022-08-04T17:58:53.348Z,74
2022-08-04T18:04:23.673Z,74
2022-08-04T18:10:07.863Z,75
2022-08-04T18:15:44.140Z,75
2022-08-04T18:21:08.665Z,74
2022-08-04T18:26:45.853Z,74
2022-08-04T18:32:20.271Z,73
2022-08-04T18:38:06.355Z,72
2022-08-04T18:43:40.537Z,71
2022-08-04T18:49:03.753Z,71
2022-08-04T18:54:42.011Z,70
2022-08-04T19:00:13.632Z,70
2022-08-04T19:05:49.355Z,70
2022-08-04T19:11:54.176Z,70
2022-08-04T19:16:58.235Z,71
2022-08-04T19:22:35.830Z,72
2022-08-04T19:28:08.669Z,73
2022-08-04T19:33:59.246Z,73
2022-08-04T19:39:18.355Z,73
2022-08-04T19:44:53.303Z,73
2022-08-04T19:51:35.407Z,73
2022-08-04T19:58:17.483Z,74
2022-08-04T20:04:09.516Z,75
2022-08-04T20:09:27.554Z,76
2022-08-04T20:15:02.654Z,77
2022-08-04T20:20:37.639Z,78
2022-08-04T20:26:12.591Z,78
2022-08-04T20:31:48.345Z,78
2022-08-04T20:37:23.060Z,77
2022-08-04T20:42:57.534Z,76
2022-08-04T20:48:33.598Z,77
2022-08-04T20:54:16.955Z,77
2022-08-04T20:59:42.535Z,76
2022-08-04T21:05:17.536Z,76
2022-08-04T21:10:52.517Z,76
2022-08-04T21:22:02.518Z,75
2022-08-04T21:27:39.401Z,75
2022-08-04T21:33:12.646Z,75
2022-08-04T21:38:51.556Z,76
2022-08-04T21:44:22.636Z,76
2022-08-04T21:49:57.598Z,76
2022-08-04T21:56:39.214Z,77
2022-08-04T22:02:14.889Z,77
2022-08-04T22:07:50.818Z,77
2022-08-04T22:18:59.176Z,77
2022-08-04T22:24:34.189Z,78
2022-08-04T22:30:16.859Z,78
2022-08-04T22:35:49.384Z,77
2022-08-04T22:41:19.452Z,77
2022-08-04T22:46:54.295Z,77
2022-08-04T22:52:32.179Z,77
2022-08-04T22:58:09.368Z,77
2022-08-04T23:03:39.332Z,77
2022-08-04T23:09:16.202Z,77
2022-08-04T23:14:49.382Z,77
2022-08-04T23:20:32.917Z,77
2022-08-04T23:26:07.259Z,77
2022-08-04T23:31:41.604Z,77
2022-08-04T23:37:10.225Z,77
2022-08-04T23:42:44.338Z,78
2022-08-04T23:48:21.179Z,78
2022-08-04T23:54:03.212Z,78
2022-08-04T23:59:52.406Z,78
